sensor_id;sensor_type;location;lat;lon;timestamp;pressure;altitude;pressure_sealevel;temperature;humidity
60244;BME280;46106;51.468;5.814;2022-10-16T00:00:32;100719.66;;;12.30;100.00
60244;BME280;46106;51.468;5.814;2022-10-16T00:02:57;100696.03;;;12.18;100.00
60244;BME280;46106;51.468;5.814;2022-10-16T00:05:23;100713.31;;;12.30;100.00
60244;BME280;46106;51.468;5.814;2022-10-16T00:07:48;100714.63;;;12.36;100.00
60244;BME280;46106;51.468;5.814;2022-10-16T00:10:14;100711.75;;;12.37;100.00
60244;BME280;46106;51.468;5.814;2022-10-16T00:12:39;100709.13;;;12.36;100.00
60244;BME280;46106;51.468;5.814;2022-10-16T00:15:05;100710.88;;;12.37;100.00
60244;BME280;46106;51.468;5.814;2022-10-16T00:17:31;100708.88;;;12.39;100.00
60244;BME280;46106;51.468;5.814;2022-10-16T00:19:57;100701.72;;;12.26;100.00
60244;BME280;46106;51.468;5.814;2022-10-16T00:22:23;100712.69;;;12.26;100.00
60244;BME280;46106;51.468;5.814;2022-10-16T00:24:48;100724.56;;;12.27;100.00
60244;BME280;46106;51.468;5.814;2022-10-16T00:27:14;100720.34;;;12.23;100.00
60244;BME280;46106;51.468;5.814;2022-10-16T00:29:39;100704.97;;;12.10;100.00
60244;BME280;46106;51.468;5.814;2022-10-16T00:32:05;100716.72;;;12.22;100.00
60244;BME280;46106;51.468;5.814;2022-10-16T00:34:30;100714.13;;;12.21;100.00
60244;BME280;46106;51.468;5.814;2022-10-16T00:36:56;100714.19;;;12.09;100.00
60244;BME280;46106;51.468;5.814;2022-10-16T00:39:21;100705.81;;;12.11;100.00
60244;BME280;46106;51.468;5.814;2022-10-16T00:41:47;100711.00;;;12.04;100.00
60244;BME280;46106;51.468;5.814;2022-10-16T00:44:42;100714.84;;;12.02;100.00
60244;BME280;46106;51.468;5.814;2022-10-16T00:47:10;100702.88;;;12.03;100.00
60244;BME280;46106;51.468;5.814;2022-10-16T00:49:38;100713.88;;;12.03;100.00
60244;BME280;46106;51.468;5.814;2022-10-16T00:52:03;100720.63;;;11.99;100.00
60244;BME280;46106;51.468;5.814;2022-10-16T00:54:31;100720.16;;;11.93;100.00
60244;BME280;46106;51.468;5.814;2022-10-16T00:57:00;100727.13;;;11.98;100.00
60244;BME280;46106;51.468;5.814;2022-10-16T00:59:36;100728.88;;;11.99;100.00
60244;BME280;46106;51.468;5.814;2022-10-16T01:02:03;100727.84;;;12.00;100.00
60244;BME280;46106;51.468;5.814;2022-10-16T01:04:34;100720.47;;;12.00;100.00
60244;BME280;46106;51.468;5.814;2022-10-16T01:07:14;100722.50;;;11.98;100.00
60244;BME280;46106;51.468;5.814;2022-10-16T01:12:23;100717.72;;;12.00;100.00
60244;BME280;46106;51.468;5.814;2022-10-16T01:15:26;100710.41;;;12.01;100.00
60244;BME280;46106;51.468;5.814;2022-10-16T01:20:46;100703.03;;;12.01;100.00
60244;BME280;46106;51.468;5.814;2022-10-16T01:23:20;100707.91;;;11.98;100.00
60244;BME280;46106;51.468;5.814;2022-10-16T01:28:54;100709.44;;;11.90;100.00
60244;BME280;46106;51.468;5.814;2022-10-16T01:31:25;100701.47;;;11.87;100.00
60244;BME280;46106;51.468;5.814;2022-10-16T01:34:00;100701.88;;;11.83;100.00
60244;BME280;46106;51.468;5.814;2022-10-16T01:36:36;100694.16;;;11.76;100.00
60244;BME280;46106;51.468;5.814;2022-10-16T01:39:06;100709.38;;;11.81;100.00
60244;BME280;46106;51.468;5.814;2022-10-16T01:41:38;100710.47;;;11.78;100.00
60244;BME280;46106;51.468;5.814;2022-10-16T01:44:08;100700.31;;;11.69;100.00
60244;BME280;46106;51.468;5.814;2022-10-16T01:46:37;100712.63;;;11.74;100.00
60244;BME280;46106;51.468;5.814;2022-10-16T01:49:06;100724.06;;;11.80;100.00
60244;BME280;46106;51.468;5.814;2022-10-16T01:51:34;100728.97;;;11.76;100.00
60244;BME280;46106;51.468;5.814;2022-10-16T01:54:01;100720.25;;;11.71;100.00
60244;BME280;46106;51.468;5.814;2022-10-16T01:56:28;100722.25;;;11.69;100.00
60244;BME280;46106;51.468;5.814;2022-10-16T01:59:01;100721.25;;;11.70;100.00
60244;BME280;46106;51.468;5.814;2022-10-16T02:01:30;100699.75;;;11.54;100.00
60244;BME280;46106;51.468;5.814;2022-10-16T02:04:02;100732.94;;;11.72;100.00
60244;BME280;46106;51.468;5.814;2022-10-16T02:06:29;100731.22;;;11.71;100.00
60244;BME280;46106;51.468;5.814;2022-10-16T02:08:55;100731.75;;;11.65;100.00
60244;BME280;46106;51.468;5.814;2022-10-16T02:11:20;100738.47;;;11.61;100.00
60244;BME280;46106;51.468;5.814;2022-10-16T02:13:59;100726.25;;;11.65;100.00
60244;BME280;46106;51.468;5.814;2022-10-16T02:16:34;100732.00;;;11.62;100.00
60244;BME280;46106;51.468;5.814;2022-10-16T02:19:00;100730.72;;;11.66;100.00
60244;BME280;46106;51.468;5.814;2022-10-16T02:21:29;100734.63;;;11.63;100.00
60244;BME280;46106;51.468;5.814;2022-10-16T02:29:45;100725.03;;;11.57;100.00
60244;BME280;46106;51.468;5.814;2022-10-16T02:32:17;100714.63;;;11.51;100.00
60244;BME280;46106;51.468;5.814;2022-10-16T02:34:46;100717.47;;;11.50;100.00
60244;BME280;46106;51.468;5.814;2022-10-16T02:37:13;100726.19;;;11.55;100.00
60244;BME280;46106;51.468;5.814;2022-10-16T02:39:43;100733.13;;;11.59;100.00
60244;BME280;46106;51.468;5.814;2022-10-16T02:42:13;100728.06;;;11.54;100.00
60244;BME280;46106;51.468;5.814;2022-10-16T02:44:39;100723.09;;;11.48;100.00
60244;BME280;46106;51.468;5.814;2022-10-16T02:47:06;100731.94;;;11.52;100.00
60244;BME280;46106;51.468;5.814;2022-10-16T02:49:32;100727.63;;;11.38;100.00
60244;BME280;46106;51.468;5.814;2022-10-16T02:51:57;100734.94;;;11.49;100.00
60244;BME280;46106;51.468;5.814;2022-10-16T02:54:23;100722.06;;;11.49;100.00
60244;BME280;46106;51.468;5.814;2022-10-16T02:56:49;100730.16;;;11.51;100.00
60244;BME280;46106;51.468;5.814;2022-10-16T02:59:14;100725.72;;;11.50;100.00
60244;BME280;46106;51.468;5.814;2022-10-16T03:01:40;100719.34;;;11.49;100.00
60244;BME280;46106;51.468;5.814;2022-10-16T03:04:05;100711.25;;;11.48;100.00
60244;BME280;46106;51.468;5.814;2022-10-16T03:06:31;100708.91;;;11.43;100.00
60244;BME280;46106;51.468;5.814;2022-10-16T03:08:56;100720.34;;;11.48;100.00
60244;BME280;46106;51.468;5.814;2022-10-16T03:11:21;100706.94;;;11.34;100.00
60244;BME280;46106;51.468;5.814;2022-10-16T03:13:47;100723.47;;;11.44;100.00
60244;BME280;46106;51.468;5.814;2022-10-16T03:16:12;100727.34;;;11.41;100.00
60244;BME280;46106;51.468;5.814;2022-10-16T03:18:38;100723.13;;;11.37;100.00
60244;BME280;46106;51.468;5.814;2022-10-16T03:21:04;100733.84;;;11.40;100.00
60244;BME280;46106;51.468;5.814;2022-10-16T03:23:29;100735.97;;;11.36;100.00
60244;BME280;46106;51.468;5.814;2022-10-16T03:25:55;100755.28;;;11.46;100.00
60244;BME280;46106;51.468;5.814;2022-10-16T03:28:20;100743.66;;;11.43;100.00
60244;BME280;46106;51.468;5.814;2022-10-16T03:30:46;100748.63;;;11.49;100.00
60244;BME280;46106;51.468;5.814;2022-10-16T03:33:11;100731.50;;;11.35;100.00
60244;BME280;46106;51.468;5.814;2022-10-16T03:35:37;100758.22;;;11.54;100.00
60244;BME280;46106;51.468;5.814;2022-10-16T03:38:03;100762.09;;;11.52;100.00
60244;BME280;46106;51.468;5.814;2022-10-16T03:40:28;100762.22;;;11.50;100.00
60244;BME280;46106;51.468;5.814;2022-10-16T03:42:53;100756.22;;;11.56;100.00
60244;BME280;46106;51.468;5.814;2022-10-16T03:45:23;100753.34;;;11.58;100.00
60244;BME280;46106;51.468;5.814;2022-10-16T03:47:48;100756.09;;;11.58;100.00
60244;BME280;46106;51.468;5.814;2022-10-16T03:50:14;100755.69;;;11.63;100.00
60244;BME280;46106;51.468;5.814;2022-10-16T03:52:39;100755.19;;;11.57;100.00
60244;BME280;46106;51.468;5.814;2022-10-16T03:55:05;100765.66;;;11.64;100.00
60244;BME280;46106;51.468;5.814;2022-10-16T03:57:31;100765.78;;;11.62;100.00
60244;BME280;46106;51.468;5.814;2022-10-16T03:59:56;100776.63;;;11.64;100.00
60244;BME280;46106;51.468;5.814;2022-10-16T04:02:22;100772.50;;;11.69;100.00
60244;BME280;46106;51.468;5.814;2022-10-16T04:04:47;100775.13;;;11.71;100.00
60244;BME280;46106;51.468;5.814;2022-10-16T04:07:13;100777.84;;;11.71;100.00
60244;BME280;46106;51.468;5.814;2022-10-16T04:09:38;100772.63;;;11.68;100.00
60244;BME280;46106;51.468;5.814;2022-10-16T04:12:04;100771.59;;;11.69;100.00
60244;BME280;46106;51.468;5.814;2022-10-16T04:14:29;100773.72;;;11.76;100.00
60244;BME280;46106;51.468;5.814;2022-10-16T04:16:55;100780.69;;;11.81;100.00
60244;BME280;46106;51.468;5.814;2022-10-16T04:19:20;100783.56;;;11.79;100.00
60244;BME280;46106;51.468;5.814;2022-10-16T04:21:45;100781.19;;;11.74;100.00
60244;BME280;46106;51.468;5.814;2022-10-16T04:24:11;100783.56;;;11.79;100.00
60244;BME280;46106;51.468;5.814;2022-10-16T04:26:38;100782.16;;;11.85;100.00
60244;BME280;46106;51.468;5.814;2022-10-16T04:29:03;100788.63;;;11.84;100.00
60244;BME280;46106;51.468;5.814;2022-10-16T04:31:29;100781.28;;;11.84;100.00
60244;BME280;46106;51.468;5.814;2022-10-16T04:33:54;100798.34;;;11.88;100.00
60244;BME280;46106;51.468;5.814;2022-10-16T04:36:20;100785.72;;;11.97;100.00
60244;BME280;46106;51.468;5.814;2022-10-16T04:38:45;100795.59;;;11.99;100.00
60244;BME280;46106;51.468;5.814;2022-10-16T04:41:11;100800.34;;;11.97;100.00
60244;BME280;46106;51.468;5.814;2022-10-16T04:43:36;100798.47;;;11.98;100.00
60244;BME280;46106;51.468;5.814;2022-10-16T04:46:01;100793.97;;;11.97;100.00
60244;BME280;46106;51.468;5.814;2022-10-16T04:48:29;100790.97;;;12.00;100.00
60244;BME280;46106;51.468;5.814;2022-10-16T04:50:55;100798.47;;;11.98;100.00
60244;BME280;46106;51.468;5.814;2022-10-16T04:53:21;100813.31;;;11.95;100.00
60244;BME280;46106;51.468;5.814;2022-10-16T04:55:47;100812.56;;;11.93;100.00
60244;BME280;46106;51.468;5.814;2022-10-16T04:58:13;100809.06;;;11.91;100.00
60244;BME280;46106;51.468;5.814;2022-10-16T05:00:38;100814.06;;;11.97;100.00
60244;BME280;46106;51.468;5.814;2022-10-16T05:03:04;100821.66;;;11.93;100.00
60244;BME280;46106;51.468;5.814;2022-10-16T05:05:33;100809.84;;;11.93;100.00
60244;BME280;46106;51.468;5.814;2022-10-16T05:07:58;100829.63;;;11.97;100.00
60244;BME280;46106;51.468;5.814;2022-10-16T05:10:23;100818.06;;;11.93;100.00
60244;BME280;46106;51.468;5.814;2022-10-16T05:12:49;100826.91;;;11.97;100.00
60244;BME280;46106;51.468;5.814;2022-10-16T05:15:15;100814.31;;;11.94;100.00
60244;BME280;46106;51.468;5.814;2022-10-16T05:17:40;100830.66;;;11.95;100.00
60244;BME280;46106;51.468;5.814;2022-10-16T05:20:06;100829.91;;;11.93;100.00
60244;BME280;46106;51.468;5.814;2022-10-16T05:22:31;100833.41;;;11.95;100.00
60244;BME280;46106;51.468;5.814;2022-10-16T05:24:57;100824.41;;;11.93;100.00
60244;BME280;46106;51.468;5.814;2022-10-16T05:27:22;100827.66;;;11.87;100.00
60244;BME280;46106;51.468;5.814;2022-10-16T05:29:48;100839.25;;;11.91;100.00
60244;BME280;46106;51.468;5.814;2022-10-16T05:32:18;100837.88;;;11.85;100.00
60244;BME280;46106;51.468;5.814;2022-10-16T05:34:44;100843.38;;;11.85;100.00
60244;BME280;46106;51.468;5.814;2022-10-16T05:37:11;100853.22;;;11.88;100.00
60244;BME280;46106;51.468;5.814;2022-10-16T05:39:37;100860.47;;;11.89;100.00
60244;BME280;46106;51.468;5.814;2022-10-16T05:42:03;100861.84;;;11.83;100.00
60244;BME280;46106;51.468;5.814;2022-10-16T05:44:29;100856.13;;;11.75;100.00
60244;BME280;46106;51.468;5.814;2022-10-16T05:46:54;100875.69;;;11.82;100.00
60244;BME280;46106;51.468;5.814;2022-10-16T05:49:20;100877.31;;;11.84;100.00
60244;BME280;46106;51.468;5.814;2022-10-16T05:51:45;100872.06;;;11.81;100.00
60244;BME280;46106;51.468;5.814;2022-10-16T05:54:11;100868.38;;;11.71;100.00
60244;BME280;46106;51.468;5.814;2022-10-16T05:56:36;100881.16;;;11.82;100.00
60244;BME280;46106;51.468;5.814;2022-10-16T05:59:03;100883.41;;;11.88;100.00
60244;BME280;46106;51.468;5.814;2022-10-16T06:01:29;100896.50;;;11.84;100.00
60244;BME280;46106;51.468;5.814;2022-10-16T06:03:56;100901.22;;;11.82;100.00
60244;BME280;46106;51.468;5.814;2022-10-16T06:06:24;100906.88;;;11.81;100.00
60244;BME280;46106;51.468;5.814;2022-10-16T06:08:54;100890.66;;;11.77;100.00
60244;BME280;46106;51.468;5.814;2022-10-16T06:11:22;100908.84;;;11.78;100.00
60244;BME280;46106;51.468;5.814;2022-10-16T06:13:56;100910.59;;;11.80;100.00
60244;BME280;46106;51.468;5.814;2022-10-16T06:16:24;100928.81;;;11.81;100.00
60244;BME280;46106;51.468;5.814;2022-10-16T06:18:54;100926.06;;;11.92;100.00
60244;BME280;46106;51.468;5.814;2022-10-16T06:21:22;100926.56;;;11.86;100.00
60244;BME280;46106;51.468;5.814;2022-10-16T06:23:50;100930.41;;;11.83;100.00
60244;BME280;46106;51.468;5.814;2022-10-16T06:26:18;100935.41;;;11.89;100.00
60244;BME280;46106;51.468;5.814;2022-10-16T06:28:43;100944.50;;;11.90;100.00
60244;BME280;46106;51.468;5.814;2022-10-16T06:31:10;100939.25;;;11.87;100.00
60244;BME280;46106;51.468;5.814;2022-10-16T06:33:37;100939.63;;;11.82;100.00
60244;BME280;46106;51.468;5.814;2022-10-16T06:36:14;100942.00;;;11.87;100.00
60244;BME280;46106;51.468;5.814;2022-10-16T06:38:39;100942.78;;;11.89;100.00
60244;BME280;46106;51.468;5.814;2022-10-16T06:41:06;100940.75;;;11.91;100.00
60244;BME280;46106;51.468;5.814;2022-10-16T06:43:32;100958.72;;;11.95;100.00
60244;BME280;46106;51.468;5.814;2022-10-16T06:46:01;100946.28;;;11.80;100.00
60244;BME280;46106;51.468;5.814;2022-10-16T06:48:28;100965.47;;;11.91;100.00
60244;BME280;46106;51.468;5.814;2022-10-16T06:51:04;100972.81;;;11.90;100.00
60244;BME280;46106;51.468;5.814;2022-10-16T06:53:32;100967.34;;;11.90;100.00
60244;BME280;46106;51.468;5.814;2022-10-16T06:55:57;100965.38;;;11.92;100.00
60244;BME280;46106;51.468;5.814;2022-10-16T06:58:23;100971.09;;;12.01;100.00
60244;BME280;46106;51.468;5.814;2022-10-16T07:00:55;100972.56;;;12.05;100.00
60244;BME280;46106;51.468;5.814;2022-10-16T07:03:21;100990.63;;;12.19;100.00
60244;BME280;46106;51.468;5.814;2022-10-16T07:05:47;100981.47;;;12.29;100.00
60244;BME280;46106;51.468;5.814;2022-10-16T07:08:12;100990.84;;;12.38;100.00
60244;BME280;46106;51.468;5.814;2022-10-16T07:10:38;100982.91;;;12.56;100.00
60244;BME280;46106;51.468;5.814;2022-10-16T07:13:03;100990.59;;;12.62;100.00
60244;BME280;46106;51.468;5.814;2022-10-16T07:15:29;101008.47;;;12.89;100.00
60244;BME280;46106;51.468;5.814;2022-10-16T07:17:54;101007.44;;;12.90;100.00
60244;BME280;46106;51.468;5.814;2022-10-16T07:20:20;101028.59;;;13.11;100.00
60244;BME280;46106;51.468;5.814;2022-10-16T07:22:46;101029.66;;;13.19;100.00
60244;BME280;46106;51.468;5.814;2022-10-16T07:25:11;101033.19;;;13.31;100.00
60244;BME280;46106;51.468;5.814;2022-10-16T07:27:37;101032.97;;;13.34;100.00
60244;BME280;46106;51.468;5.814;2022-10-16T07:30:04;101035.72;;;13.34;100.00
60244;BME280;46106;51.468;5.814;2022-10-16T07:32:30;101037.50;;;13.66;100.00
60244;BME280;46106;51.468;5.814;2022-10-16T07:34:56;101039.16;;;13.57;100.00
60244;BME280;46106;51.468;5.814;2022-10-16T07:37:23;101044.00;;;13.65;100.00
60244;BME280;46106;51.468;5.814;2022-10-16T07:39:48;101050.13;;;13.78;100.00
60244;BME280;46106;51.468;5.814;2022-10-16T07:42:15;101053.66;;;13.90;100.00
60244;BME280;46106;51.468;5.814;2022-10-16T07:44:40;101061.28;;;13.77;100.00
60244;BME280;46106;51.468;5.814;2022-10-16T07:47:07;101062.28;;;14.07;100.00
60244;BME280;46106;51.468;5.814;2022-10-16T07:49:32;101068.78;;;13.96;100.00
60244;BME280;46106;51.468;5.814;2022-10-16T07:51:57;101078.13;;;14.14;100.00
60244;BME280;46106;51.468;5.814;2022-10-16T07:54:23;101080.22;;;14.32;100.00
60244;BME280;46106;51.468;5.814;2022-10-16T07:56:48;101085.28;;;14.27;100.00
60244;BME280;46106;51.468;5.814;2022-10-16T07:59:14;101089.00;;;14.16;100.00
60244;BME280;46106;51.468;5.814;2022-10-16T08:01:39;101090.75;;;14.67;100.00
60244;BME280;46106;51.468;5.814;2022-10-16T08:04:08;101101.09;;;14.44;100.00
60244;BME280;46106;51.468;5.814;2022-10-16T08:06:38;101103.25;;;14.72;100.00
60244;BME280;46106;51.468;5.814;2022-10-16T08:09:04;101111.72;;;14.59;100.00
60244;BME280;46106;51.468;5.814;2022-10-16T08:11:30;101117.19;;;14.89;100.00
60244;BME280;46106;51.468;5.814;2022-10-16T08:13:55;101116.06;;;14.92;100.00
60244;BME280;46106;51.468;5.814;2022-10-16T08:16:21;101120.53;;;14.83;100.00
60244;BME280;46106;51.468;5.814;2022-10-16T08:18:46;101122.03;;;15.27;100.00
60244;BME280;46106;51.468;5.814;2022-10-16T08:21:17;101122.72;;;15.09;100.00
60244;BME280;46106;51.468;5.814;2022-10-16T08:23:44;101135.06;;;15.24;100.00
60244;BME280;46106;51.468;5.814;2022-10-16T08:26:10;101126.50;;;15.28;100.00
60244;BME280;46106;51.468;5.814;2022-10-16T08:28:36;101134.91;;;15.26;100.00
60244;BME280;46106;51.468;5.814;2022-10-16T08:31:20;101136.53;;;15.48;100.00
60244;BME280;46106;51.468;5.814;2022-10-16T08:33:46;101149.91;;;15.23;100.00
60244;BME280;46106;51.468;5.814;2022-10-16T08:36:13;101144.94;;;15.86;100.00
60244;BME280;46106;51.468;5.814;2022-10-16T08:38:39;101147.66;;;15.95;100.00
60244;BME280;46106;51.468;5.814;2022-10-16T08:41:27;101148.97;;;15.91;100.00
60244;BME280;46106;51.468;5.814;2022-10-16T08:46:43;101157.59;;;16.26;100.00
60244;BME280;46106;51.468;5.814;2022-10-16T08:49:13;101165.06;;;16.06;100.00
60244;BME280;46106;51.468;5.814;2022-10-16T08:51:41;101170.09;;;16.30;100.00
60244;BME280;46106;51.468;5.814;2022-10-16T08:57:14;101165.91;;;16.81;100.00
60244;BME280;46106;51.468;5.814;2022-10-16T08:59:39;101172.38;;;17.00;100.00
60244;BME280;46106;51.468;5.814;2022-10-16T09:02:27;101176.88;;;17.01;100.00
60244;BME280;46106;51.468;5.814;2022-10-16T09:05:37;101187.31;;;16.79;100.00
60244;BME280;46106;51.468;5.814;2022-10-16T09:10:42;101186.44;;;17.06;100.00
60244;BME280;46106;51.468;5.814;2022-10-16T09:13:21;101184.78;;;16.96;100.00
60244;BME280;46106;51.468;5.814;2022-10-16T09:21:36;101195.75;;;17.51;100.00
60244;BME280;46106;51.468;5.814;2022-10-16T09:24:18;101197.75;;;17.13;100.00
60244;BME280;46106;51.468;5.814;2022-10-16T09:26:45;101199.44;;;17.42;100.00
60244;BME280;46106;51.468;5.814;2022-10-16T09:29:12;101208.59;;;17.96;100.00
60244;BME280;46106;51.468;5.814;2022-10-16T09:31:38;101211.91;;;18.00;100.00
60244;BME280;46106;51.468;5.814;2022-10-16T09:34:05;101214.97;;;18.41;100.00
60244;BME280;46106;51.468;5.814;2022-10-16T09:36:45;101209.75;;;18.38;100.00
60244;BME280;46106;51.468;5.814;2022-10-16T09:39:12;101209.66;;;18.56;100.00
60244;BME280;46106;51.468;5.814;2022-10-16T09:41:39;101215.13;;;18.74;100.00
60244;BME280;46106;51.468;5.814;2022-10-16T09:44:27;101210.16;;;18.17;100.00
60244;BME280;46106;51.468;5.814;2022-10-16T09:47:04;101213.94;;;18.16;100.00
60244;BME280;46106;51.468;5.814;2022-10-16T09:49:30;101201.63;;;18.10;100.00
60244;BME280;46106;51.468;5.814;2022-10-16T09:52:25;101212.50;;;18.38;100.00
60244;BME280;46106;51.468;5.814;2022-10-16T09:57:19;101204.97;;;17.96;100.00
60244;BME280;46106;51.468;5.814;2022-10-16T09:59:52;101211.66;;;18.11;100.00
60244;BME280;46106;51.468;5.814;2022-10-16T10:02:23;101217.63;;;18.51;100.00
60244;BME280;46106;51.468;5.814;2022-10-16T10:04:52;101207.50;;;18.33;100.00
60244;BME280;46106;51.468;5.814;2022-10-16T10:07:27;101218.78;;;18.40;100.00
60244;BME280;46106;51.468;5.814;2022-10-16T10:09:56;101213.00;;;18.60;100.00
60244;BME280;46106;51.468;5.814;2022-10-16T10:12:25;101223.22;;;18.59;100.00
60244;BME280;46106;51.468;5.814;2022-10-16T10:14:53;101215.00;;;17.79;100.00
60244;BME280;46106;51.468;5.814;2022-10-16T10:17:22;101223.88;;;18.00;100.00
60244;BME280;46106;51.468;5.814;2022-10-16T10:22:29;101227.31;;;18.21;100.00
60244;BME280;46106;51.468;5.814;2022-10-16T10:24:56;101224.66;;;18.98;100.00
60244;BME280;46106;51.468;5.814;2022-10-16T10:27:34;101234.88;;;18.97;100.00
60244;BME280;46106;51.468;5.814;2022-10-16T10:36:29;101239.59;;;17.28;100.00
60244;BME280;46106;51.468;5.814;2022-10-16T10:47:07;101248.91;;;18.35;100.00
60244;BME280;46106;51.468;5.814;2022-10-16T11:05:42;101254.81;;;17.60;100.00
60244;BME280;46106;51.468;5.814;2022-10-16T11:11:01;101258.47;;;17.78;100.00
60244;BME280;46106;51.468;5.814;2022-10-16T11:13:38;101265.31;;;18.28;100.00
60244;BME280;46106;51.468;5.814;2022-10-16T11:16:17;101255.84;;;18.39;100.00
60244;BME280;46106;51.468;5.814;2022-10-16T11:21:42;101258.72;;;18.55;100.00
60244;BME280;46106;51.468;5.814;2022-10-16T11:24:22;101255.75;;;18.49;100.00
60244;BME280;46106;51.468;5.814;2022-10-16T11:26:50;101259.22;;;18.51;100.00
60244;BME280;46106;51.468;5.814;2022-10-16T11:29:30;101263.31;;;18.91;100.00
60244;BME280;46106;51.468;5.814;2022-10-16T11:32:05;101265.63;;;18.78;100.00
60244;BME280;46106;51.468;5.814;2022-10-16T11:34:37;101262.09;;;18.94;100.00
60244;BME280;46106;51.468;5.814;2022-10-16T11:37:32;101262.66;;;18.97;100.00
60244;BME280;46106;51.468;5.814;2022-10-16T11:40:05;101257.59;;;18.92;100.00
60244;BME280;46106;51.468;5.814;2022-10-16T11:42:48;101253.81;;;18.76;100.00
60244;BME280;46106;51.468;5.814;2022-10-16T11:45:28;101255.22;;;18.80;100.00
60244;BME280;46106;51.468;5.814;2022-10-16T11:50:53;101271.63;;;18.91;100.00
60244;BME280;46106;51.468;5.814;2022-10-16T11:55:57;101266.97;;;18.73;100.00
60244;BME280;46106;51.468;5.814;2022-10-16T12:06:40;101270.53;;;18.84;100.00
60244;BME280;46106;51.468;5.814;2022-10-16T12:09:02;101278.78;;;18.76;100.00
60244;BME280;46106;51.468;5.814;2022-10-16T12:16:51;101269.06;;;18.71;100.00
60244;BME280;46106;51.468;5.814;2022-10-16T12:19:18;101274.28;;;18.74;100.00
60244;BME280;46106;51.468;5.814;2022-10-16T12:21:44;101269.88;;;18.90;100.00
60244;BME280;46106;51.468;5.814;2022-10-16T12:24:33;101280.44;;;18.86;100.00
60244;BME280;46106;51.468;5.814;2022-10-16T12:27:00;101287.19;;;18.84;100.00
60244;BME280;46106;51.468;5.814;2022-10-16T12:31:56;101290.84;;;18.84;100.00
60244;BME280;46106;51.468;5.814;2022-10-16T12:34:26;101287.06;;;18.41;100.00
60244;BME280;46106;51.468;5.814;2022-10-16T12:36:53;101276.56;;;18.27;100.00
60244;BME280;46106;51.468;5.814;2022-10-16T12:39:22;101281.91;;;18.46;100.00
60244;BME280;46106;51.468;5.814;2022-10-16T12:42:00;101269.75;;;18.73;100.00
60244;BME280;46106;51.468;5.814;2022-10-16T12:44:32;101289.88;;;18.76;100.00
60244;BME280;46106;51.468;5.814;2022-10-16T12:46:58;101268.09;;;18.81;100.00
60244;BME280;46106;51.468;5.814;2022-10-16T12:49:31;101267.09;;;18.90;100.00
60244;BME280;46106;51.468;5.814;2022-10-16T12:51:57;101274.91;;;18.86;100.00
60244;BME280;46106;51.468;5.814;2022-10-16T12:54:30;101271.09;;;18.87;100.00
60244;BME280;46106;51.468;5.814;2022-10-16T12:56:59;101274.59;;;18.98;100.00
60244;BME280;46106;51.468;5.814;2022-10-16T12:59:38;101281.06;;;18.80;100.00
60244;BME280;46106;51.468;5.814;2022-10-16T13:10:37;101272.69;;;18.72;100.00
60244;BME280;46106;51.468;5.814;2022-10-16T13:13:35;101272.75;;;18.54;100.00
60244;BME280;46106;51.468;5.814;2022-10-16T13:25:25;101272.97;;;18.87;100.00
60244;BME280;46106;51.468;5.814;2022-10-16T13:27:56;101272.34;;;19.01;100.00
60244;BME280;46106;51.468;5.814;2022-10-16T13:30:30;101276.88;;;19.02;100.00
60244;BME280;46106;51.468;5.814;2022-10-16T13:33:06;101282.06;;;18.97;100.00
60244;BME280;46106;51.468;5.814;2022-10-16T13:35:34;101286.31;;;18.57;100.00
60244;BME280;46106;51.468;5.814;2022-10-16T13:38:14;101279.25;;;18.36;100.00
60244;BME280;46106;51.468;5.814;2022-10-16T13:43:17;101300.00;;;18.32;100.00
60244;BME280;46106;51.468;5.814;2022-10-16T13:45:55;101293.44;;;18.33;100.00
60244;BME280;46106;51.468;5.814;2022-10-16T13:48:21;101294.53;;;18.23;100.00
60244;BME280;46106;51.468;5.814;2022-10-16T13:51:10;101300.72;;;18.16;100.00
60244;BME280;46106;51.468;5.814;2022-10-16T13:53:37;101290.09;;;18.30;100.00
60244;BME280;46106;51.468;5.814;2022-10-16T13:56:04;101296.75;;;18.37;100.00
60244;BME280;46106;51.468;5.814;2022-10-16T13:58:30;101308.22;;;18.42;100.00
60244;BME280;46106;51.468;5.814;2022-10-16T14:00:58;101308.31;;;18.32;100.00
60244;BME280;46106;51.468;5.814;2022-10-16T14:03:25;101311.03;;;18.24;100.00
60244;BME280;46106;51.468;5.814;2022-10-16T14:05:53;101307.53;;;18.22;100.00
60244;BME280;46106;51.468;5.814;2022-10-16T14:08:20;101297.66;;;18.02;100.00
60244;BME280;46106;51.468;5.814;2022-10-16T14:10:51;101298.78;;;18.09;100.00
60244;BME280;46106;51.468;5.814;2022-10-16T14:13:22;101295.50;;;18.13;100.00
60244;BME280;46106;51.468;5.814;2022-10-16T14:15:51;101299.94;;;18.06;100.00
60244;BME280;46106;51.468;5.814;2022-10-16T14:18:23;101297.28;;;17.96;100.00
60244;BME280;46106;51.468;5.814;2022-10-16T14:20:50;101302.97;;;17.95;100.00
60244;BME280;46106;51.468;5.814;2022-10-16T14:23:36;101306.44;;;17.97;100.00
60244;BME280;46106;51.468;5.814;2022-10-16T14:26:12;101313.66;;;18.08;100.00
60244;BME280;46106;51.468;5.814;2022-10-16T14:28:39;101315.56;;;18.07;100.00
60244;BME280;46106;51.468;5.814;2022-10-16T14:31:27;101296.25;;;17.97;100.00
60244;BME280;46106;51.468;5.814;2022-10-16T14:33:53;101287.78;;;17.99;100.00
60244;BME280;46106;51.468;5.814;2022-10-16T14:36:19;101279.06;;;17.94;100.00
60244;BME280;46106;51.468;5.814;2022-10-16T14:39:02;101291.78;;;17.87;100.00
60244;BME280;46106;51.468;5.814;2022-10-16T14:41:31;101293.13;;;17.82;100.00